Benndale, Mississippi
Current Conditions -  °F | °C
As of 11:53 PM on Wednesday 22 Oct 2014 (Local Time) from KHBG Reporting Station
Clear Clear  
Wind Chill: 52°   Ceiling: Unl
Heat Index: 52°   Visibility: 10mi
Dew Point: 47°   Wind: 0mph
Humidity: 83%   Direction: NA
Pressure: 30.11"   Gusts: NA
Location:  31.0532°N, 88.8084°W
Report Text: KHBG 230453Z AUTO 00000KT 10SM CLR 11/08 A3011 RMK AO2 SLP195 T01110083
Loading
Personal Weather Stations






























Interactive Weather Map
Tropical Storm Tracking
New forecast layout! Learn more

10-Day Weather Forecast

Advertisements
Track Severe Weather on mobile